createdAt,value
2018-03-08T00:00:05.633Z,6.07
2018-03-08T00:01:05.909Z,6.11
2018-03-08T00:02:06.158Z,6.03
2018-03-08T00:03:06.392Z,6.09
2018-03-08T00:04:06.641Z,6.00
2018-03-08T00:05:06.887Z,5.95
2018-03-08T00:06:07.132Z,6.01
2018-03-08T00:07:07.384Z,5.93
2018-03-08T00:08:07.642Z,5.93
2018-03-08T00:09:07.885Z,5.98
2018-03-08T00:10:08.137Z,5.93
2018-03-08T00:11:08.382Z,5.95
2018-03-08T00:12:08.632Z,5.93
2018-03-08T00:13:08.880Z,6.00
2018-03-08T00:14:09.130Z,5.96
2018-03-08T00:15:09.381Z,5.96
2018-03-08T00:16:09.631Z,5.93
2018-03-08T00:17:09.885Z,6.07
2018-03-08T00:18:10.135Z,6.00
2018-03-08T00:19:10.371Z,6.01
2018-03-08T00:20:10.622Z,5.95
2018-03-08T00:21:10.872Z,5.91
2018-03-08T00:22:11.146Z,5.91
2018-03-08T00:23:11.395Z,5.98
2018-03-08T00:24:11.645Z,5.98
2018-03-08T00:25:11.894Z,5.83
2018-03-08T00:26:12.141Z,5.96
2018-03-08T00:27:12.387Z,6.01
2018-03-08T00:28:12.639Z,5.93
2018-03-08T00:29:12.895Z,6.01
2018-03-08T00:30:13.146Z,5.98
2018-03-08T00:31:13.392Z,5.95
2018-03-08T00:32:13.636Z,5.91
2018-03-08T00:33:13.887Z,6.06
2018-03-08T00:34:14.140Z,5.91
2018-03-08T00:35:14.396Z,6.01
2018-03-08T00:36:14.643Z,6.03
2018-03-08T00:37:14.884Z,5.96
2018-03-08T00:38:15.133Z,6.03
2018-03-08T00:39:15.367Z,5.98
2018-03-08T00:40:15.618Z,5.96
2018-03-08T00:41:15.870Z,5.88
2018-03-08T00:42:16.114Z,5.98
2018-03-08T00:43:16.363Z,5.93
2018-03-08T00:44:16.616Z,6.00
2018-03-08T00:45:16.863Z,6.01
2018-03-08T00:46:17.112Z,6.03
2018-03-08T00:47:17.357Z,5.98
2018-03-08T00:48:17.613Z,6.07
2018-03-08T00:49:17.867Z,6.03
2018-03-08T00:50:18.104Z,5.96
2018-03-08T00:51:18.354Z,5.96
2018-03-08T00:52:18.610Z,5.98
2018-03-08T00:53:18.852Z,5.91
2018-03-08T00:54:19.101Z,5.92
2018-03-08T00:55:19.360Z,6.00
2018-03-08T00:56:19.598Z,5.93
2018-03-08T00:57:19.844Z,5.86
2018-03-08T00:58:20.095Z,5.89
2018-03-08T00:59:20.346Z,5.91
2018-03-08T01:00:20.589Z,5.92
2018-03-08T01:01:20.831Z,5.86
2018-03-08T01:02:21.082Z,5.93
2018-03-08T01:03:21.333Z,5.95
2018-03-08T01:04:21.585Z,5.89
2018-03-08T01:05:21.834Z,5.91
2018-03-08T01:06:22.105Z,5.83
2018-03-08T01:07:22.353Z,5.91
2018-03-08T01:08:22.602Z,5.93
2018-03-08T01:09:22.852Z,5.93
2018-03-08T01:10:23.108Z,5.91
2018-03-08T01:11:23.365Z,6.00
2018-03-08T01:12:23.601Z,5.96
2018-03-08T01:13:23.847Z,6.04
2018-03-08T01:14:24.098Z,5.96
2018-03-08T01:15:24.345Z,5.96
2018-03-08T01:16:24.592Z,5.92
2018-03-08T01:17:24.843Z,5.95
2018-03-08T01:18:25.094Z,5.95
2018-03-08T01:19:25.339Z,6.00
2018-03-08T01:20:25.593Z,6.03
2018-03-08T01:21:25.844Z,5.86
2018-03-08T01:22:26.093Z,5.93
2018-03-08T01:23:26.344Z,6.03
2018-03-08T01:24:26.591Z,6.00
2018-03-08T01:25:26.846Z,5.98
2018-03-08T01:26:27.095Z,5.86
2018-03-08T01:27:27.347Z,6.01
2018-03-08T01:28:27.594Z,5.93
2018-03-08T01:29:27.847Z,6.00
2018-03-08T01:30:28.091Z,5.95
2018-03-08T01:31:28.343Z,6.01
2018-03-08T01:32:28.593Z,5.96
2018-03-08T01:33:28.842Z,5.96
2018-03-08T01:34:29.090Z,5.98
2018-03-08T01:35:29.342Z,5.89
2018-03-08T01:36:29.591Z,5.86
2018-03-08T01:37:29.835Z,5.92
2018-03-08T01:38:30.091Z,5.93
2018-03-08T01:39:30.338Z,5.86
2018-03-08T01:40:30.586Z,5.81
2018-03-08T01:41:30.837Z,5.81
2018-03-08T01:42:31.087Z,5.82
2018-03-08T01:43:31.376Z,5.78
2018-03-08T01:44:31.587Z,5.77
2018-03-08T01:45:31.833Z,5.75
2018-03-08T01:46:32.088Z,5.67
2018-03-08T01:47:32.340Z,5.67
2018-03-08T01:48:32.593Z,5.73
2018-03-08T01:49:32.861Z,5.77
2018-03-08T01:50:33.140Z,5.63
2018-03-08T01:51:33.359Z,5.56
2018-03-08T01:52:33.613Z,5.64
2018-03-08T01:53:33.858Z,5.59
2018-03-08T01:54:34.110Z,5.60
2018-03-08T01:55:34.363Z,5.59
2018-03-08T01:56:34.629Z,5.56
2018-03-08T01:57:34.869Z,5.52
2018-03-08T01:58:35.117Z,5.55
2018-03-08T01:59:35.363Z,5.56
2018-03-08T02:00:35.614Z,5.60
2018-03-08T02:01:35.865Z,5.57
2018-03-08T02:02:36.110Z,5.55
2018-03-08T02:03:36.376Z,5.55
2018-03-08T02:04:36.623Z,5.41
2018-03-08T02:05:36.876Z,5.49
2018-03-08T02:06:37.123Z,5.52
2018-03-08T02:07:37.375Z,5.45
2018-03-08T02:08:37.624Z,5.57
2018-03-08T02:09:37.881Z,5.59
2018-03-08T02:10:38.128Z,5.55
2018-03-08T02:11:38.372Z,5.55
2018-03-08T02:12:38.622Z,5.50
2018-03-08T02:13:38.877Z,5.52
2018-03-08T02:14:39.130Z,5.48
2018-03-08T02:15:39.379Z,5.49
2018-03-08T02:16:39.627Z,5.41
2018-03-08T02:17:39.901Z,5.52
2018-03-08T02:18:40.152Z,5.50
2018-03-08T02:19:40.409Z,5.48
2018-03-08T02:20:40.660Z,5.53
2018-03-08T02:21:40.914Z,5.55
2018-03-08T02:22:41.157Z,5.57
2018-03-08T02:23:41.407Z,5.55
2018-03-08T02:24:41.658Z,5.55
2018-03-08T02:25:41.909Z,5.60
2018-03-08T02:26:42.159Z,5.53
2018-03-08T02:27:42.405Z,5.59
2018-03-08T02:28:42.656Z,5.55
2018-03-08T02:29:42.909Z,5.64
2018-03-08T02:30:43.153Z,5.52
2018-03-08T02:31:43.410Z,5.60
2018-03-08T02:32:43.657Z,5.57
2018-03-08T02:33:43.908Z,5.59
2018-03-08T02:34:44.159Z,5.59
2018-03-08T02:35:44.416Z,5.60
2018-03-08T02:36:44.656Z,5.57
2018-03-08T02:37:44.907Z,5.59
2018-03-08T02:38:45.161Z,5.66
2018-03-08T02:39:45.409Z,5.70
2018-03-08T02:40:45.659Z,5.63
2018-03-08T02:41:45.912Z,5.66
2018-03-08T02:42:46.169Z,5.57
2018-03-08T02:43:46.428Z,5.57
2018-03-08T02:44:46.672Z,5.56
2018-03-08T02:45:46.943Z,5.53
2018-03-08T02:46:47.198Z,5.55
2018-03-08T02:47:47.444Z,5.57
2018-03-08T02:48:47.689Z,5.66
2018-03-08T02:49:47.941Z,5.71
2018-03-08T02:50:48.199Z,5.59
2018-03-08T02:51:48.444Z,5.60
2018-03-08T02:52:48.696Z,5.66
2018-03-08T02:53:48.942Z,5.71
2018-03-08T02:54:49.194Z,5.66
2018-03-08T02:55:49.443Z,5.68
2018-03-08T02:56:49.695Z,5.66
2018-03-08T02:57:49.944Z,5.57
2018-03-08T02:58:50.195Z,5.68
2018-03-08T02:59:50.454Z,5.53
2018-03-08T03:00:50.711Z,5.55
2018-03-08T03:01:50.959Z,5.59
2018-03-08T03:02:51.210Z,5.70
2018-03-08T03:03:51.458Z,5.67
2018-03-08T03:04:51.707Z,5.73
2018-03-08T03:05:51.956Z,5.70
2018-03-08T03:06:52.208Z,5.63
2018-03-08T03:07:52.461Z,5.75
2018-03-08T03:08:52.711Z,5.70
2018-03-08T03:09:53.030Z,5.67
2018-03-08T03:10:53.213Z,5.82
2018-03-08T03:11:53.457Z,5.67
2018-03-08T03:12:53.703Z,5.67
2018-03-08T03:13:53.952Z,5.63
2018-03-08T03:14:54.202Z,5.71
2018-03-08T03:15:54.454Z,5.66
2018-03-08T03:16:54.701Z,5.59
2018-03-08T03:17:54.952Z,5.75
2018-03-08T03:18:55.205Z,5.78
2018-03-08T03:19:55.455Z,5.77
2018-03-08T03:20:55.706Z,5.73
2018-03-08T03:21:55.956Z,5.66
2018-03-08T03:22:56.207Z,5.68
2018-03-08T03:23:56.455Z,5.67
2018-03-08T03:24:56.711Z,5.67
2018-03-08T03:25:56.964Z,5.64
2018-03-08T03:26:57.208Z,5.70
2018-03-08T03:27:57.461Z,5.67
2018-03-08T03:28:57.710Z,5.74
2018-03-08T03:29:57.957Z,5.73
2018-03-08T03:30:58.208Z,5.70
2018-03-08T03:31:58.454Z,5.71
2018-03-08T03:32:58.703Z,5.66
2018-03-08T03:33:58.949Z,5.66
2018-03-08T03:34:59.196Z,5.64
2018-03-08T03:35:59.449Z,5.64
2018-03-08T03:36:59.702Z,5.68
2018-03-08T03:37:59.954Z,5.66
2018-03-08T03:39:00.203Z,5.68
2018-03-08T03:40:00.457Z,5.50
2018-03-08T03:41:00.707Z,5.71
2018-03-08T03:42:00.954Z,5.66
2018-03-08T03:43:01.218Z,5.59
2018-03-08T03:44:01.470Z,5.64
2018-03-08T03:45:01.717Z,5.78
2018-03-08T03:46:01.973Z,5.68
2018-03-08T03:47:02.220Z,5.78
2018-03-08T03:48:02.470Z,5.66
2018-03-08T03:49:02.720Z,5.71
2018-03-08T03:50:02.972Z,5.70
2018-03-08T03:51:03.220Z,5.71
2018-03-08T03:52:03.470Z,5.73
2018-03-08T03:53:03.716Z,5.60
2018-03-08T03:54:03.967Z,5.68
2018-03-08T03:55:04.222Z,5.66
2018-03-08T03:56:04.471Z,5.66
2018-03-08T03:57:04.743Z,5.68
2018-03-08T03:58:04.994Z,5.68
2018-03-08T03:59:05.262Z,5.71
2018-03-08T04:00:05.495Z,5.74
2018-03-08T04:01:05.741Z,5.67
2018-03-08T04:02:05.984Z,5.75
2018-03-08T04:03:06.234Z,5.73
2018-03-08T04:04:06.481Z,5.81
2018-03-08T04:05:06.739Z,5.71
2018-03-08T04:06:06.984Z,5.75
2018-03-08T04:07:07.235Z,5.70
2018-03-08T04:08:07.487Z,5.74
2018-03-08T04:09:07.741Z,5.75
2018-03-08T04:10:07.989Z,5.71
2018-03-08T04:11:08.236Z,5.75
2018-03-08T04:12:08.525Z,5.71
2018-03-08T04:13:08.735Z,5.71
2018-03-08T04:14:08.985Z,5.67
2018-03-08T04:15:09.242Z,5.74
2018-03-08T04:16:09.489Z,5.68
2018-03-08T04:17:09.739Z,5.70
2018-03-08T04:18:09.991Z,5.63
2018-03-08T04:19:10.242Z,5.56
2018-03-08T04:20:10.497Z,5.56
2018-03-08T04:21:10.740Z,5.49
2018-03-08T04:22:10.993Z,5.40
2018-03-08T04:23:11.239Z,5.43
2018-03-08T04:24:11.491Z,5.40
2018-03-08T04:25:11.742Z,5.43
2018-03-08T04:26:11.994Z,5.41
2018-03-08T04:27:12.242Z,5.30
2018-03-08T04:28:12.490Z,5.41
2018-03-08T04:29:12.741Z,5.41
2018-03-08T04:30:12.990Z,5.37
2018-03-08T04:31:13.240Z,5.23
2018-03-08T04:32:13.490Z,5.25
2018-03-08T04:33:13.742Z,5.28
2018-03-08T04:34:13.989Z,5.34
2018-03-08T04:35:14.239Z,5.32
2018-03-08T04:36:14.489Z,5.34
2018-03-08T04:37:14.739Z,5.28
2018-03-08T04:38:14.989Z,5.37
2018-03-08T04:39:15.236Z,5.37
2018-03-08T04:40:15.502Z,5.37
2018-03-08T04:41:15.754Z,5.32
2018-03-08T04:42:16.005Z,5.43
2018-03-08T04:43:16.252Z,5.40
2018-03-08T04:44:16.504Z,5.43
2018-03-08T04:45:16.751Z,5.40
2018-03-08T04:46:16.997Z,5.45
2018-03-08T04:47:17.251Z,5.41
2018-03-08T04:48:17.502Z,5.41
2018-03-08T04:49:17.752Z,5.43
2018-03-08T04:50:18.001Z,5.32
2018-03-08T04:51:18.249Z,5.43
2018-03-08T04:52:18.498Z,5.45
2018-03-08T04:53:18.753Z,5.43
2018-03-08T04:54:19.045Z,5.45
2018-03-08T04:55:19.252Z,5.45
2018-03-08T04:56:19.500Z,5.38
2018-03-08T04:57:19.756Z,5.41
2018-03-08T04:58:20.017Z,5.40
2018-03-08T04:59:20.258Z,5.45
2018-03-08T05:00:20.507Z,5.41
2018-03-08T05:01:20.759Z,5.37
2018-03-08T05:02:21.009Z,5.41
2018-03-08T05:03:21.262Z,5.37
2018-03-08T05:04:21.512Z,5.30
2018-03-08T05:05:21.764Z,5.40
2018-03-08T05:06:22.018Z,5.38
2018-03-08T05:07:22.274Z,5.34
2018-03-08T05:08:22.547Z,5.34
2018-03-08T05:09:22.791Z,5.28
2018-03-08T05:10:23.044Z,5.27
2018-03-08T05:11:23.292Z,5.32
2018-03-08T05:12:23.544Z,5.27
2018-03-08T05:13:23.796Z,5.28
2018-03-08T05:14:24.048Z,5.16
2018-03-08T05:15:24.300Z,5.23
2018-03-08T05:16:24.555Z,5.23
2018-03-08T05:17:24.807Z,5.28
2018-03-08T05:18:25.061Z,5.19
2018-03-08T05:19:25.396Z,5.25
2018-03-08T05:20:25.568Z,5.20
2018-03-08T05:21:25.819Z,5.19
2018-03-08T05:22:26.069Z,5.20
2018-03-08T05:23:26.321Z,5.17
2018-03-08T05:24:26.569Z,5.07
2018-03-08T05:25:26.819Z,5.19
2018-03-08T05:26:27.067Z,5.10
2018-03-08T05:27:27.320Z,5.10
2018-03-08T05:28:27.569Z,5.13
2018-03-08T05:29:27.820Z,5.13
2018-03-08T05:30:28.069Z,5.07
2018-03-08T05:31:28.321Z,5.14
2018-03-08T05:32:28.562Z,5.13
2018-03-08T05:33:28.810Z,5.09
2018-03-08T05:34:29.059Z,5.10
2018-03-08T05:35:29.310Z,5.13
2018-03-08T05:36:29.580Z,5.13
2018-03-08T05:37:29.833Z,5.22
2018-03-08T05:38:30.085Z,5.17
2018-03-08T05:39:30.338Z,5.23
2018-03-08T05:40:30.590Z,5.28
2018-03-08T05:41:30.842Z,5.22
2018-03-08T05:42:31.094Z,5.22
2018-03-08T05:43:31.342Z,5.28
2018-03-08T05:44:31.600Z,5.40
2018-03-08T05:45:31.848Z,5.31
2018-03-08T05:46:32.102Z,5.28
2018-03-08T05:47:32.360Z,5.23
2018-03-08T05:48:32.602Z,5.28
2018-03-08T05:49:32.859Z,5.22
2018-03-08T05:50:33.112Z,5.22
2018-03-08T05:51:33.360Z,5.30
2018-03-08T05:52:33.617Z,5.28
2018-03-08T05:53:33.870Z,5.30
2018-03-08T05:54:34.121Z,5.25
2018-03-08T05:55:34.372Z,5.23
2018-03-08T05:56:34.621Z,5.23
2018-03-08T05:57:34.875Z,5.22
2018-03-08T05:58:35.119Z,5.17
2018-03-08T05:59:35.367Z,5.25
2018-03-08T06:00:35.622Z,5.25
2018-03-08T06:01:35.873Z,5.19
2018-03-08T06:02:36.121Z,5.25
2018-03-08T06:03:36.370Z,5.30
2018-03-08T06:04:36.618Z,5.25
2018-03-08T06:05:36.868Z,5.30
2018-03-08T06:06:37.119Z,5.27
2018-03-08T06:07:37.369Z,5.31
2018-03-08T06:08:37.624Z,5.34
2018-03-08T06:09:37.876Z,5.30
2018-03-08T06:10:38.129Z,5.34
2018-03-08T06:11:38.382Z,5.28
2018-03-08T06:12:38.635Z,5.31
2018-03-08T06:13:38.885Z,5.25
2018-03-08T06:14:39.136Z,5.25
2018-03-08T06:15:39.392Z,5.32
2018-03-08T06:16:39.641Z,5.32
2018-03-08T06:17:39.895Z,5.38
2018-03-08T06:18:40.148Z,5.32
2018-03-08T06:19:40.398Z,5.34
2018-03-08T06:20:40.672Z,5.40
2018-03-08T06:21:40.905Z,5.32
2018-03-08T06:22:41.158Z,5.35
2018-03-08T06:23:41.416Z,5.37
2018-03-08T06:24:41.667Z,5.30
2018-03-08T06:25:41.913Z,5.40
2018-03-08T06:26:42.166Z,5.37
2018-03-08T06:27:42.414Z,5.46
2018-03-08T06:28:42.673Z,5.32
2018-03-08T06:29:42.917Z,5.35
2018-03-08T06:30:43.175Z,5.50
2018-03-08T06:31:43.432Z,5.41
2018-03-08T06:32:43.682Z,5.35
2018-03-08T06:33:43.933Z,5.46
2018-03-08T06:34:44.183Z,5.43
2018-03-08T06:35:44.437Z,5.46
2018-03-08T06:36:44.692Z,5.48
2018-03-08T06:37:44.949Z,5.41
2018-03-08T06:38:45.200Z,5.34
2018-03-08T06:39:45.456Z,5.32
2018-03-08T06:40:45.712Z,5.40
2018-03-08T06:41:45.964Z,5.46
2018-03-08T06:42:46.217Z,5.46
2018-03-08T06:43:46.474Z,5.38
2018-03-08T06:44:46.769Z,5.38
2018-03-08T06:45:46.980Z,5.45
2018-03-08T06:46:47.235Z,5.41
2018-03-08T06:47:47.483Z,5.45
2018-03-08T06:48:47.736Z,5.40
2018-03-08T06:49:47.987Z,5.38
2018-03-08T06:50:48.237Z,5.46
2018-03-08T06:51:48.487Z,5.35
2018-03-08T06:52:48.741Z,5.35
2018-03-08T06:53:48.995Z,5.37
2018-03-08T06:54:49.245Z,5.40
2018-03-08T06:55:49.500Z,5.35
2018-03-08T06:56:49.751Z,5.40
2018-03-08T06:57:50.693Z,5.32
2018-03-08T06:58:50.254Z,5.43
2018-03-08T06:59:50.506Z,5.27
2018-03-08T07:00:50.760Z,5.40
2018-03-08T07:01:51.013Z,5.41
2018-03-08T07:02:51.275Z,5.41
2018-03-08T07:03:51.518Z,5.41
2018-03-08T07:04:51.772Z,5.35
2018-03-08T07:05:52.027Z,5.43
2018-03-08T07:06:52.273Z,5.43
2018-03-08T07:07:52.526Z,5.45
2018-03-08T07:08:52.780Z,5.45
2018-03-08T07:09:53.056Z,5.40
2018-03-08T07:10:53.284Z,5.48
2018-03-08T07:11:53.537Z,5.41
2018-03-08T07:12:53.786Z,5.45
2018-03-08T07:13:54.038Z,5.41
2018-03-08T07:14:54.287Z,5.40
2018-03-08T07:15:54.547Z,5.48
2018-03-08T07:16:54.795Z,5.41
2018-03-08T07:17:55.058Z,5.35
2018-03-08T07:18:55.312Z,5.41
2018-03-08T07:19:55.561Z,5.49
2018-03-08T07:20:55.816Z,5.46
2018-03-08T07:21:56.066Z,5.53
2018-03-08T07:22:56.314Z,5.53
2018-03-08T07:23:56.569Z,5.52
2018-03-08T07:24:56.823Z,5.50
2018-03-08T07:25:57.072Z,5.59
2018-03-08T07:26:57.326Z,5.50
2018-03-08T07:27:57.576Z,5.52
2018-03-08T07:28:57.826Z,5.50
2018-03-08T07:29:58.078Z,5.56
2018-03-08T07:30:58.331Z,5.53
2018-03-08T07:31:58.583Z,5.50
2018-03-08T07:32:58.840Z,5.56
2018-03-08T07:33:59.088Z,5.50
2018-03-08T07:34:59.335Z,5.64
2018-03-08T07:35:59.593Z,5.60
2018-03-08T07:36:59.844Z,5.66
2018-03-08T07:38:00.101Z,5.60
2018-03-08T07:39:00.348Z,5.60
2018-03-08T07:40:00.601Z,5.56
2018-03-08T07:41:00.852Z,5.67
2018-03-08T07:42:01.105Z,5.70
2018-03-08T07:43:01.356Z,5.70
2018-03-08T07:44:01.614Z,5.85
2018-03-08T07:45:01.876Z,5.81
2018-03-08T07:46:02.111Z,5.78
2018-03-08T07:47:02.363Z,5.86
2018-03-08T07:48:02.614Z,5.93
2018-03-08T07:49:02.872Z,5.89
2018-03-08T07:50:03.120Z,5.98
2018-03-08T07:51:03.369Z,5.93
2018-03-08T07:52:03.622Z,6.07
2018-03-08T07:53:03.873Z,6.04
2018-03-08T07:54:04.128Z,6.14
2018-03-08T07:55:04.363Z,6.21
2018-03-08T07:56:04.623Z,6.28
2018-03-08T07:57:04.872Z,6.22
2018-03-08T07:58:05.122Z,6.19
2018-03-08T07:59:05.384Z,6.30
2018-03-08T08:00:05.628Z,6.30
2018-03-08T08:01:05.877Z,6.30
2018-03-08T08:02:06.134Z,6.46
2018-03-08T08:03:06.388Z,6.47
2018-03-08T08:04:06.638Z,6.68
2018-03-08T08:05:06.892Z,6.68
2018-03-08T08:06:07.146Z,6.65
2018-03-08T08:07:07.402Z,6.80
2018-03-08T08:08:07.652Z,6.72
2018-03-08T08:09:07.906Z,6.73
2018-03-08T08:10:08.160Z,6.81
2018-03-08T08:11:08.412Z,6.81
2018-03-08T08:12:08.665Z,6.87
2018-03-08T08:13:08.916Z,6.98
2018-03-08T08:14:09.162Z,7.08
2018-03-08T08:15:09.414Z,6.98
2018-03-08T08:16:09.672Z,7.04
2018-03-08T08:17:09.936Z,6.95
2018-03-08T08:18:10.188Z,6.98
2018-03-08T08:19:10.439Z,7.02
2018-03-08T08:20:10.693Z,6.98
2018-03-08T08:21:10.944Z,6.94
2018-03-08T08:22:11.196Z,6.81
2018-03-08T08:23:11.439Z,6.84
2018-03-08T08:24:11.693Z,6.90
2018-03-08T08:25:11.945Z,6.94
2018-03-08T08:26:12.202Z,6.94
2018-03-08T08:27:12.454Z,6.90
2018-03-08T08:28:12.706Z,6.87
2018-03-08T08:29:12.961Z,6.71
2018-03-08T08:30:13.210Z,6.80
2018-03-08T08:31:13.461Z,6.79
2018-03-08T08:32:13.713Z,6.98
2018-03-08T08:33:13.971Z,6.90
2018-03-08T08:34:14.254Z,6.84
2018-03-08T08:35:14.475Z,6.98
2018-03-08T08:36:14.727Z,7.05
2018-03-08T08:37:14.981Z,7.07
2018-03-08T08:38:15.231Z,7.09
2018-03-08T08:39:15.485Z,7.16
2018-03-08T08:40:15.738Z,7.08
2018-03-08T08:41:15.997Z,7.13
2018-03-08T08:42:16.246Z,7.16
2018-03-08T08:43:16.491Z,7.15
2018-03-08T08:44:16.740Z,7.19
2018-03-08T08:45:16.992Z,7.17
2018-03-08T08:46:17.241Z,7.24
2018-03-08T08:47:17.494Z,7.35
2018-03-08T08:48:17.749Z,7.31
2018-03-08T08:49:17.998Z,7.22
2018-03-08T08:50:18.252Z,7.35
2018-03-08T08:51:18.504Z,7.35
2018-03-08T08:52:18.759Z,7.35
2018-03-08T08:53:19.015Z,7.29
2018-03-08T08:54:19.271Z,7.37
2018-03-08T08:55:19.526Z,7.35
2018-03-08T08:56:19.781Z,7.37
2018-03-08T08:57:20.041Z,7.24
2018-03-08T08:58:20.295Z,7.24
2018-03-08T08:59:20.549Z,7.22
2018-03-08T09:00:20.811Z,7.19
2018-03-08T09:01:21.068Z,7.16
2018-03-08T09:02:21.318Z,7.17
2018-03-08T09:03:21.573Z,7.15
2018-03-08T09:04:21.831Z,7.17
2018-03-08T09:05:22.077Z,7.17
2018-03-08T09:06:22.331Z,7.29
2018-03-08T09:07:22.585Z,7.31
2018-03-08T09:08:22.839Z,7.40
2018-03-08T09:09:23.096Z,7.23
2018-03-08T09:10:23.344Z,7.32
2018-03-08T09:11:23.613Z,7.26
2018-03-08T09:12:23.865Z,7.20
2018-03-08T09:13:24.120Z,7.20
2018-03-08T09:14:24.370Z,7.31
2018-03-08T09:15:24.622Z,7.34
2018-03-08T09:16:24.875Z,7.38
2018-03-08T09:17:25.128Z,7.53
2018-03-08T09:18:25.383Z,7.38
2018-03-08T09:19:25.704Z,7.59
2018-03-08T09:20:25.889Z,7.74
2018-03-08T09:21:26.140Z,7.79
2018-03-08T09:22:26.396Z,7.90
2018-03-08T09:23:26.643Z,8.00
2018-03-08T09:24:26.896Z,8.12
2018-03-08T09:25:27.144Z,8.30
2018-03-08T09:26:27.409Z,8.30
2018-03-08T09:27:27.667Z,8.33
2018-03-08T09:28:27.908Z,8.25
2018-03-08T09:29:28.163Z,8.42
2018-03-08T09:30:28.418Z,8.37
2018-03-08T09:31:28.671Z,8.35
2018-03-08T09:32:28.922Z,8.36
2018-03-08T09:33:29.174Z,8.30
2018-03-08T09:34:29.432Z,8.18
2018-03-08T09:35:29.685Z,8.07
2018-03-08T09:36:29.942Z,7.99
2018-03-08T09:37:30.196Z,7.99
2018-03-08T09:38:30.450Z,8.04
2018-03-08T09:39:30.703Z,8.00
2018-03-08T09:40:30.960Z,7.96
2018-03-08T09:41:31.217Z,7.85
2018-03-08T09:42:31.469Z,7.87
2018-03-08T09:43:31.726Z,7.85
2018-03-08T09:44:31.977Z,7.94
2018-03-08T09:45:32.234Z,8.03
2018-03-08T09:46:32.487Z,8.21
2018-03-08T09:47:32.738Z,8.22
2018-03-08T09:48:32.992Z,8.18
2018-03-08T09:49:33.247Z,8.44
2018-03-08T09:50:33.496Z,8.62
2018-03-08T09:51:33.759Z,8.84
2018-03-08T09:52:34.016Z,8.87
2018-03-08T09:53:34.272Z,8.79
2018-03-08T09:54:34.526Z,8.84
2018-03-08T09:55:34.781Z,8.81
2018-03-08T09:56:35.032Z,9.10
2018-03-08T09:57:35.288Z,9.16
2018-03-08T09:58:35.545Z,9.18
2018-03-08T09:59:35.800Z,9.39
2018-03-08T10:00:36.053Z,9.46
2018-03-08T10:01:36.307Z,9.39
2018-03-08T10:02:36.567Z,9.49
2018-03-08T10:03:36.818Z,9.38
2018-03-08T10:04:37.081Z,9.35
2018-03-08T10:05:37.337Z,9.38
2018-03-08T10:06:37.591Z,9.31
2018-03-08T10:07:37.848Z,9.31
2018-03-08T10:08:38.104Z,9.39
2018-03-08T10:09:38.355Z,9.32
2018-03-08T10:10:38.606Z,9.34
2018-03-08T10:11:38.864Z,9.12
2018-03-08T10:12:39.123Z,9.09
2018-03-08T10:13:39.378Z,8.88
2018-03-08T10:14:39.630Z,8.90
2018-03-08T10:15:39.883Z,8.79
2018-03-08T10:16:40.133Z,8.66
2018-03-08T10:17:40.428Z,8.58
2018-03-08T10:18:40.655Z,8.66
2018-03-08T10:19:40.908Z,8.58
2018-03-08T10:20:41.163Z,8.60
2018-03-08T10:21:44.796Z,8.58
2018-03-08T10:22:41.681Z,8.65
2018-03-08T10:23:41.931Z,8.63
2018-03-08T10:24:42.187Z,8.62
2018-03-08T10:25:42.436Z,8.62
2018-03-08T10:26:42.683Z,8.53
2018-03-08T10:27:42.938Z,8.57
2018-03-08T10:28:43.197Z,8.60
2018-03-08T10:29:43.462Z,8.62
2018-03-08T10:30:43.714Z,8.55
2018-03-08T10:31:43.981Z,8.60
2018-03-08T10:32:44.222Z,8.57
2018-03-08T10:33:44.479Z,8.71
2018-03-08T10:34:44.739Z,8.86
2018-03-08T10:35:44.993Z,8.90
2018-03-08T10:36:45.247Z,8.91
2018-03-08T10:37:45.495Z,9.05
2018-03-08T10:38:45.758Z,8.97
2018-03-08T10:39:46.061Z,9.23
2018-03-08T10:40:46.277Z,9.34
2018-03-08T10:41:46.524Z,9.40
2018-03-08T10:42:46.763Z,9.63
2018-03-08T10:43:47.032Z,9.81
2018-03-08T10:44:47.278Z,9.93
2018-03-08T10:45:47.537Z,10.01
2018-03-08T10:46:47.787Z,10.30
2018-03-08T10:47:48.041Z,10.39
2018-03-08T10:49:48.554Z,10.44
2018-03-08T10:50:48.806Z,10.47
2018-03-08T10:51:49.065Z,10.52
2018-03-08T10:52:49.323Z,10.66
2018-03-08T10:53:49.580Z,10.70
2018-03-08T10:54:49.823Z,10.65
2018-03-08T10:55:50.074Z,10.71
2018-03-08T10:56:50.322Z,10.66
2018-03-08T10:57:50.587Z,10.43
2018-03-08T10:58:50.849Z,10.46
2018-03-08T10:59:51.083Z,10.43
2018-03-08T11:00:51.333Z,10.52
2018-03-08T11:01:51.603Z,10.47
2018-03-08T11:02:51.856Z,10.51
2018-03-08T11:03:52.116Z,10.53
2018-03-08T11:04:52.363Z,10.53
2018-03-08T11:05:52.630Z,10.52
2018-03-08T11:06:52.886Z,10.55
2018-03-08T11:07:53.155Z,10.56
2018-03-08T11:08:53.389Z,10.43
2018-03-08T11:09:53.633Z,10.53
2018-03-08T11:10:53.879Z,10.56
2018-03-08T11:11:54.126Z,10.53
2018-03-08T11:12:54.375Z,10.44
2018-03-08T11:13:54.651Z,10.40
2018-03-08T11:14:54.903Z,10.51
2018-03-08T11:15:55.167Z,10.47
2018-03-08T11:16:55.407Z,10.44
2018-03-08T11:17:55.652Z,10.55
2018-03-08T11:18:55.897Z,10.56
2018-03-08T11:19:56.151Z,10.77
2018-03-08T11:20:56.403Z,10.81
2018-03-08T11:21:56.661Z,10.96
2018-03-08T11:22:56.918Z,11.14
2018-03-08T11:23:57.172Z,11.10
2018-03-08T11:24:57.426Z,11.07
2018-03-08T11:25:57.700Z,11.17
2018-03-08T11:26:57.929Z,11.14
2018-03-08T11:27:58.183Z,11.17
2018-03-08T11:28:58.445Z,11.21
2018-03-08T11:29:58.696Z,11.09
2018-03-08T11:30:58.943Z,11.20
2018-03-08T11:31:59.207Z,11.19
2018-03-08T11:32:59.448Z,11.03
2018-03-08T11:33:59.704Z,10.92
2018-03-08T11:34:59.951Z,10.91
2018-03-08T11:36:14.716Z,10.91
2018-03-08T11:37:00.507Z,10.84
2018-03-08T11:38:00.768Z,10.59
2018-03-08T11:39:01.005Z,10.52
2018-03-08T11:40:02.680Z,10.52
2018-03-08T11:41:01.834Z,10.52
2018-03-08T11:42:01.792Z,10.28
2018-03-08T11:43:02.041Z,10.33
2018-03-08T11:44:02.267Z,10.52
2018-03-08T11:45:02.521Z,10.60
2018-03-08T11:46:02.778Z,10.84
2018-03-08T11:47:03.035Z,10.86
2018-03-08T11:48:03.281Z,11.09
2018-03-08T11:49:03.532Z,11.17
2018-03-08T11:50:03.787Z,11.17
2018-03-08T11:51:04.026Z,11.17
2018-03-08T11:52:04.299Z,11.02
2018-03-08T11:53:04.540Z,10.98
2018-03-08T11:54:04.794Z,10.73
2018-03-08T11:55:05.058Z,10.71
2018-03-08T11:56:05.309Z,10.56
2018-03-08T11:57:05.572Z,10.58
2018-03-08T11:58:05.840Z,10.58
2018-03-08T11:59:06.133Z,10.55
2018-03-08T12:00:06.359Z,10.51
2018-03-08T12:01:06.616Z,10.44
2018-03-08T12:02:06.879Z,10.44
2018-03-08T12:03:07.129Z,10.44
2018-03-08T12:04:07.364Z,10.33
2018-03-08T12:05:07.619Z,10.39
2018-03-08T12:06:07.862Z,10.33
2018-03-08T12:07:08.115Z,10.28
2018-03-08T12:08:08.365Z,10.47
2018-03-08T12:09:08.628Z,10.52
2018-03-08T12:10:08.858Z,10.39
2018-03-08T12:11:09.157Z,10.37
2018-03-08T12:12:09.434Z,10.34
2018-03-08T12:13:09.663Z,10.39
2018-03-08T12:14:09.910Z,10.33
2018-03-08T12:15:10.152Z,10.33
2018-03-08T12:16:10.411Z,10.37
2018-03-08T12:17:10.681Z,10.36
2018-03-08T12:18:10.891Z,10.42
2018-03-08T12:19:11.203Z,10.53
2018-03-08T12:20:11.462Z,10.43
2018-03-08T12:21:11.706Z,10.37
2018-03-08T12:22:11.964Z,10.47
2018-03-08T12:23:12.185Z,10.40
2018-03-08T12:24:12.425Z,10.44
2018-03-08T12:25:12.681Z,10.37
2018-03-08T12:26:12.939Z,10.42
2018-03-08T12:27:13.188Z,10.36
2018-03-08T12:28:13.428Z,10.24
2018-03-08T12:29:13.677Z,10.33
2018-03-08T12:30:13.928Z,10.34
2018-03-08T12:31:14.171Z,10.24
2018-03-08T12:32:14.419Z,10.32
2018-03-08T12:33:14.671Z,10.33
2018-03-08T12:34:14.917Z,10.21
2018-03-08T12:35:15.172Z,10.22
2018-03-08T12:36:30.210Z,10.24
2018-03-08T12:37:15.771Z,10.26
2018-03-08T12:38:16.021Z,10.19
2018-03-08T12:39:16.268Z,10.26
2018-03-08T12:40:16.536Z,10.42
2018-03-08T12:41:16.773Z,10.43
2018-03-08T12:42:17.011Z,10.36
2018-03-08T12:43:17.264Z,10.42
2018-03-08T12:44:17.493Z,10.42
2018-03-08T12:45:17.737Z,10.52
2018-03-08T12:46:17.986Z,10.47
2018-03-08T12:47:18.228Z,10.46
2018-03-08T12:48:18.491Z,10.58
2018-03-08T12:49:18.747Z,10.43
2018-03-08T12:50:18.972Z,10.34
2018-03-08T12:51:19.227Z,10.47
2018-03-08T12:52:19.480Z,10.37
2018-03-08T12:53:19.724Z,10.34
2018-03-08T12:54:19.967Z,10.28
2018-03-08T12:55:20.219Z,10.24
2018-03-08T12:56:20.491Z,10.22
2018-03-08T12:57:20.747Z,10.28
2018-03-08T12:58:21.002Z,10.37
2018-03-08T12:59:21.250Z,10.46
2018-03-08T13:00:21.500Z,10.43
2018-03-08T13:01:21.741Z,10.43
2018-03-08T13:02:22.001Z,10.43
2018-03-08T13:03:22.275Z,10.46
2018-03-08T13:04:22.553Z,10.42
2018-03-08T13:05:22.767Z,10.36
2018-03-08T13:06:23.049Z,10.26
2018-03-08T13:07:23.302Z,10.12
2018-03-08T13:08:23.555Z,10.17
2018-03-08T13:09:23.798Z,10.17
2018-03-08T13:10:24.095Z,10.04
2018-03-08T13:11:24.362Z,10.10
2018-03-08T13:12:24.616Z,10.01
2018-03-08T13:13:24.861Z,9.99
2018-03-08T13:14:25.097Z,10.01
2018-03-08T13:15:25.346Z,10.01
2018-03-08T13:16:25.592Z,10.00
2018-03-08T13:17:25.839Z,10.00